Panda — H8NH — position and weather

sailwx.info

Track history (hours):
 
Tides and Currents Weather Stations Pressure Air Temp Water Temp Dewpoint Dewpoint Depression Visibility Wind Speed Wind Dir Waves Ship Positions

Panda

Last reported at 2016-Jan-31 17:27 UTC. Time now 2016-Feb-13 19:28 UTC.
Position N 37°25' E 025°57'.
Warning: this ship's position is 13 days out of date.

Length 171 m; draft 5 m.

Type: Cargo ship. MMSI: 352528000.

Date/timePositionNaut miles runAvg speedWind from/ knotsBaromVisibWave heightAir tempDewpointWater temp
2016-Jan-31 17:27N 37°25' E 025°57'9 9.7
2016-Jan-31 16:33N 37°33' E 025°53'1010.3
2016-Jan-31 15:34N 37°42' E 025°49'243 8.3
2016-Jan-30 10:21N 40°57' E 028°57'  
2016-Jan-27 02:10N 44°27' E 037°30'610.4
2016-Jan-27 01:33N 44°29' E 037°39'1010.3
2016-Jan-27 00:34N 44°32' E 037°52'2 2.2
2016-Jan-26 23:32N 44°34' E 037°55'0 0.0
2016-Jan-26 22:32N 44°34' E 037°55'0 0.0
2016-Jan-26 21:32N 44°33' E 037°55'0 0.0
2016-Jan-26 20:32N 44°33' E 037°55'0 0.1
2016-Jan-26 19:33N 44°34' E 037°55'1 1.0
2016-Jan-26 18:31N 44°34' E 037°53'4 4.6
2016-Jan-26 17:33N 44°38' E 037°50'6 6.1
2016-Jan-26 16:33N 44°43' E 037°48'1 0.6
2016-Jan-26 15:33N 44°44' E 037°47'0 0.0
2016-Jan-26 14:33N 44°44' E 037°47'0 0.0
2016-Jan-26 13:33N 44°44' E 037°47'0 0.0
2016-Jan-26 12:33N 44°44' E 037°47'0 0.0
2016-Jan-26 11:33N 44°44' E 037°47'0 0.0
2016-Jan-26 10:33N 44°44' E 037°47'0 0.0
2016-Jan-26 09:33N 44°44' E 037°47'0 0.0
2016-Jan-26 08:33N 44°44' E 037°47'0 0.0
2016-Jan-26 07:33N 44°44' E 037°47'0 0.0
2016-Jan-26 06:33N 44°44' E 037°47'0 0.0
2016-Jan-26 05:33N 44°44' E 037°47'0 0.0
2016-Jan-26 04:33N 44°44' E 037°47'0 0.0
2016-Jan-26 03:33N 44°44' E 037°47'0 0.0
2016-Jan-26 02:33N 44°44' E 037°47'0 0.0
2016-Jan-26 01:33N 44°44' E 037°47'0 0.0
2016-Jan-26 00:33N 44°44' E 037°47'0 0.0
2016-Jan-25 23:33N 44°44' E 037°47'0 0.0
2016-Jan-25 22:33N 44°44' E 037°47'0 0.0
2016-Jan-25 21:33N 44°44' E 037°47'0 0.0
2016-Jan-25 20:33N 44°44' E 037°47'0 0.0
2016-Jan-25 19:33N 44°44' E 037°47'0 0.0
2016-Jan-25 18:33N 44°44' E 037°47'0 0.0
2016-Jan-25 17:33N 44°44' E 037°47'0 0.0
2016-Jan-25 16:33N 44°44' E 037°47'0 0.0
2016-Jan-25 15:33N 44°44' E 037°47'0 0.0
2016-Jan-25 14:33N 44°44' E 037°47'0 0.0
2016-Jan-25 13:33N 44°44' E 037°47'0 0.0
2016-Jan-25 12:33N 44°44' E 037°47'0 0.0
2016-Jan-25 11:33N 44°44' E 037°47'0 0.0
2016-Jan-25 10:33N 44°44' E 037°47'0 0.0
2016-Jan-25 09:33N 44°44' E 037°47'0 0.0
2016-Jan-25 08:33N 44°44' E 037°47'0 0.0
2016-Jan-25 07:30N 44°44' E 037°47'0 0.0
2016-Jan-25 06:33N 44°44' E 037°47'0 0.0
2016-Jan-25 05:33N 44°44' E 037°47'0 0.0
2016-Jan-25 04:33N 44°44' E 037°47'0 0.0
2016-Jan-25 03:33N 44°44' E 037°47'0 0.0
2016-Jan-25 02:33N 44°44' E 037°47'0 0.0
2016-Jan-25 01:33N 44°44' E 037°47'0 0.0
2016-Jan-25 00:33N 44°44' E 037°47'0 0.0
2016-Jan-24 23:33N 44°44' E 037°47'0 0.0
2016-Jan-24 22:33N 44°44' E 037°47'0 0.0
2016-Jan-24 21:33N 44°44' E 037°47'0 0.0
2016-Jan-24 20:33N 44°44' E 037°47'0 0.0
2016-Jan-24 19:33N 44°44' E 037°47'0 0.0
2016-Jan-24 18:33N 44°44' E 037°47'0 0.0
2016-Jan-24 17:33N 44°44' E 037°47'0 0.0
2016-Jan-24 16:33N 44°44' E 037°47'0 0.0
2016-Jan-24 15:33N 44°44' E 037°47'0 0.0
2016-Jan-24 14:33N 44°44' E 037°47'0 0.0
2016-Jan-24 13:33N 44°44' E 037°47'0 0.0
2016-Jan-24 12:33N 44°44' E 037°47'0 0.0
2016-Jan-24 11:33N 44°44' E 037°47'0 0.0
2016-Jan-24 10:33N 44°44' E 037°47'0 0.0
2016-Jan-24 09:34N 44°44' E 037°47'0 0.0
2016-Jan-24 08:33N 44°44' E 037°47'0 0.0
2016-Jan-24 07:34N 44°44' E 037°47'0 0.0
2016-Jan-24 06:34N 44°44' E 037°47'0 0.0
2016-Jan-24 05:33N 44°44' E 037°47'0 0.0
2016-Jan-24 04:34N 44°44' E 037°47'0 0.0
2016-Jan-24 03:33N 44°44' E 037°47'0 0.0
2016-Jan-24 02:33N 44°44' E 037°47'0 0.0
2016-Jan-24 01:30N 44°44' E 037°47'0 0.0
2016-Jan-24 00:34N 44°44' E 037°47'0 0.0
2016-Jan-23 23:34N 44°44' E 037°47'0 0.0
2016-Jan-23 22:33N 44°44' E 037°47'0 0.0
2016-Jan-23 21:34N 44°44' E 037°47'0 0.0
2016-Jan-23 20:33N 44°44' E 037°47'4 4.5
2016-Jan-23 19:33N 44°40' E 037°50'4 3.8
2016-Jan-23 18:34N 44°36' E 037°51'9 8.6
2016-Jan-23 17:34N 44°29' E 037°44'2 1.5
2016-Jan-23 16:33N 44°31' E 037°43'1 1.3
2016-Jan-23 15:34N 44°32' E 037°43'6 6.3
2016-Jan-23 14:33N 44°31' E 037°34'5 4.6
2016-Jan-23 13:33N 44°30' E 037°28'1 1.2
2016-Jan-23 12:33N 44°31' E 037°29'1 1.2
2016-Jan-23 11:33N 44°32' E 037°30'1 1.0
2016-Jan-23 10:33N 44°33' E 037°30'1 1.2
2016-Jan-23 09:33N 44°34' E 037°31'1 1.4
2016-Jan-23 08:33N 44°35' E 037°33'3 3.0
2016-Jan-23 07:33N 44°33' E 037°35'3 3.5
2016-Jan-23 06:33N 44°29' E 037°36'1 1.2
2016-Jan-23 05:33N 44°30' E 037°36'1 1.1
2016-Jan-23 04:32N 44°31' E 037°37'1 1.2
2016-Jan-23 03:33N 44°33' E 037°37'4 3.7
2016-Jan-23 02:33N 44°32' E 037°32'7 6.5
2016-Jan-23 01:32N 44°29' E 037°24'2 1.9
2016-Jan-23 00:24N 44°31' E 037°25'1 1.5
2016-Jan-22 23:33N 44°32' E 037°26'2 1.6
2016-Jan-22 22:33N 44°33' E 037°28'4 3.7
2016-Jan-22 21:33N 44°32' E 037°33'7 7.0
2016-Jan-22 20:33N 44°27' E 037°40'2 1.7
2016-Jan-22 19:33N 44°29' E 037°38'2 1.5
2016-Jan-22 18:33N 44°30' E 037°38'2 1.5
2016-Jan-22 17:33N 44°32' E 037°38'4 3.8
2016-Jan-22 16:33N 44°29' E 037°34'1 1.0
2016-Jan-22 15:33N 44°30' E 037°34'1 1.0
2016-Jan-22 14:33N 44°31' E 037°34'1 1.0
2016-Jan-22 13:33N 44°32' E 037°34'1 1.0
2016-Jan-22 12:33N 44°33' E 037°35'1 1.1
2016-Jan-22 11:33N 44°34' E 037°35'4 4.0
2016-Jan-22 10:33N 44°31' E 037°31'1 1.3
2016-Jan-22 09:33N 44°30' E 037°31'1 0.8
2016-Jan-22 08:33N 44°31' E 037°32'1 1.2
2016-Jan-22 07:33N 44°31' E 037°33'1 1.1
2016-Jan-22 06:33N 44°31' E 037°35'1 1.1
2016-Jan-22 05:33N 44°32' E 037°36'1 1.2
2016-Jan-22 04:33N 44°32' E 037°38'1 1.0
2016-Jan-22 03:33N 44°32' E 037°39'3 3.4
2016-Jan-22 02:33N 44°29' E 037°38'1 0.8
2016-Jan-22 01:33N 44°30' E 037°38'1 1.0
2016-Jan-22 00:33N 44°31' E 037°39'1 0.8
2016-Jan-21 23:33N 44°31' E 037°40'0 0.5
2016-Jan-21 22:33N 44°31' E 037°41'1 0.8
2016-Jan-21 21:33N 44°30' E 037°41'1 0.6
2016-Jan-21 20:33N 44°30' E 037°40'1 0.8
2016-Jan-21 19:33N 44°29' E 037°40'1 1.5
2016-Jan-21 18:33N 44°28' E 037°39'1 1.4
2016-Jan-21 17:33N 44°29' E 037°40'  
Track history (hours):
 
Tides and Currents Weather Stations Pressure Air Temp Water Temp Dewpoint Dewpoint Depression Visibility Wind Speed Wind Dir Waves Ship Positions

Panda

Last reported at 2016-Jan-31 17:27 UTC. Time now 2016-Feb-13 19:28 UTC.
Position N 37°25' E 025°57'.
Warning: this ship's position is 13 days out of date.

Length 171 m; draft 5 m.

Type: Cargo ship. MMSI: 352528000.

Date/timePositionNaut miles runAvg speedWind from/ knotsBaromVisibWave heightAir tempDewpointWater temp
2016-Jan-31 17:27N 37°25' E 025°57'9 9.7
2016-Jan-31 16:33N 37°33' E 025°53'1010.3
2016-Jan-31 15:34N 37°42' E 025°49'243 8.3
2016-Jan-30 10:21N 40°57' E 028°57'  
2016-Jan-27 02:10N 44°27' E 037°30'610.4
2016-Jan-27 01:33N 44°29' E 037°39'1010.3
2016-Jan-27 00:34N 44°32' E 037°52'2 2.2
2016-Jan-26 23:32N 44°34' E 037°55'0 0.0
2016-Jan-26 22:32N 44°34' E 037°55'0 0.0
2016-Jan-26 21:32N 44°33' E 037°55'0 0.0
2016-Jan-26 20:32N 44°33' E 037°55'0 0.1
2016-Jan-26 19:33N 44°34' E 037°55'1 1.0
2016-Jan-26 18:31N 44°34' E 037°53'4 4.6
2016-Jan-26 17:33N 44°38' E 037°50'6 6.1
2016-Jan-26 16:33N 44°43' E 037°48'1 0.6
2016-Jan-26 15:33N 44°44' E 037°47'0 0.0
2016-Jan-26 14:33N 44°44' E 037°47'0 0.0
2016-Jan-26 13:33N 44°44' E 037°47'0 0.0
2016-Jan-26 12:33N 44°44' E 037°47'0 0.0
2016-Jan-26 11:33N 44°44' E 037°47'0 0.0
2016-Jan-26 10:33N 44°44' E 037°47'0 0.0
2016-Jan-26 09:33N 44°44' E 037°47'0 0.0
2016-Jan-26 08:33N 44°44' E 037°47'0 0.0
2016-Jan-26 07:33N 44°44' E 037°47'0 0.0
2016-Jan-26 06:33N 44°44' E 037°47'0 0.0
2016-Jan-26 05:33N 44°44' E 037°47'0 0.0
2016-Jan-26 04:33N 44°44' E 037°47'0 0.0
2016-Jan-26 03:33N 44°44' E 037°47'0 0.0
2016-Jan-26 02:33N 44°44' E 037°47'0 0.0
2016-Jan-26 01:33N 44°44' E 037°47'0 0.0
2016-Jan-26 00:33N 44°44' E 037°47'0 0.0
2016-Jan-25 23:33N 44°44' E 037°47'0 0.0
2016-Jan-25 22:33N 44°44' E 037°47'0 0.0
2016-Jan-25 21:33N 44°44' E 037°47'0 0.0
2016-Jan-25 20:33N 44°44' E 037°47'0 0.0
2016-Jan-25 19:33N 44°44' E 037°47'0 0.0
2016-Jan-25 18:33N 44°44' E 037°47'0 0.0
2016-Jan-25 17:33N 44°44' E 037°47'0 0.0
2016-Jan-25 16:33N 44°44' E 037°47'0 0.0
2016-Jan-25 15:33N 44°44' E 037°47'0 0.0
2016-Jan-25 14:33N 44°44' E 037°47'0 0.0
2016-Jan-25 13:33N 44°44' E 037°47'0 0.0
2016-Jan-25 12:33N 44°44' E 037°47'0 0.0
2016-Jan-25 11:33N 44°44' E 037°47'0 0.0
2016-Jan-25 10:33N 44°44' E 037°47'0 0.0
2016-Jan-25 09:33N 44°44' E 037°47'0 0.0
2016-Jan-25 08:33N 44°44' E 037°47'0 0.0
2016-Jan-25 07:30N 44°44' E 037°47'0 0.0
2016-Jan-25 06:33N 44°44' E 037°47'0 0.0
2016-Jan-25 05:33N 44°44' E 037°47'0 0.0
2016-Jan-25 04:33N 44°44' E 037°47'0 0.0
2016-Jan-25 03:33N 44°44' E 037°47'0 0.0
2016-Jan-25 02:33N 44°44' E 037°47'0 0.0
2016-Jan-25 01:33N 44°44' E 037°47'0 0.0
2016-Jan-25 00:33N 44°44' E 037°47'0 0.0
2016-Jan-24 23:33N 44°44' E 037°47'0 0.0
2016-Jan-24 22:33N 44°44' E 037°47'0 0.0
2016-Jan-24 21:33N 44°44' E 037°47'0 0.0
2016-Jan-24 20:33N 44°44' E 037°47'0 0.0
2016-Jan-24 19:33N 44°44' E 037°47'0 0.0
2016-Jan-24 18:33N 44°44' E 037°47'0 0.0
2016-Jan-24 17:33N 44°44' E 037°47'0 0.0
2016-Jan-24 16:33N 44°44' E 037°47'0 0.0
2016-Jan-24 15:33N 44°44' E 037°47'0 0.0
2016-Jan-24 14:33N 44°44' E 037°47'0 0.0
2016-Jan-24 13:33N 44°44' E 037°47'0 0.0
2016-Jan-24 12:33N 44°44' E 037°47'0 0.0
2016-Jan-24 11:33N 44°44' E 037°47'0 0.0
2016-Jan-24 10:33N 44°44' E 037°47'0 0.0
2016-Jan-24 09:34N 44°44' E 037°47'0 0.0
2016-Jan-24 08:33N 44°44' E 037°47'0 0.0
2016-Jan-24 07:34N 44°44' E 037°47'0 0.0
2016-Jan-24 06:34N 44°44' E 037°47'0 0.0
2016-Jan-24 05:33N 44°44' E 037°47'0 0.0
2016-Jan-24 04:34N 44°44' E 037°47'0 0.0
2016-Jan-24 03:33N 44°44' E 037°47'0 0.0
2016-Jan-24 02:33N 44°44' E 037°47'0 0.0
2016-Jan-24 01:30N 44°44' E 037°47'0 0.0
2016-Jan-24 00:34N 44°44' E 037°47'0 0.0
2016-Jan-23 23:34N 44°44' E 037°47'0 0.0
2016-Jan-23 22:33N 44°44' E 037°47'0 0.0
2016-Jan-23 21:34N 44°44' E 037°47'0 0.0
2016-Jan-23 20:33N 44°44' E 037°47'4 4.5
2016-Jan-23 19:33N 44°40' E 037°50'4 3.8
2016-Jan-23 18:34N 44°36' E 037°51'9 8.6
2016-Jan-23 17:34N 44°29' E 037°44'2 1.5
2016-Jan-23 16:33N 44°31' E 037°43'1 1.3
2016-Jan-23 15:34N 44°32' E 037°43'6 6.3
2016-Jan-23 14:33N 44°31' E 037°34'5 4.6
2016-Jan-23 13:33N 44°30' E 037°28'1 1.2
2016-Jan-23 12:33N 44°31' E 037°29'1 1.2
2016-Jan-23 11:33N 44°32' E 037°30'1 1.0
2016-Jan-23 10:33N 44°33' E 037°30'1 1.2
2016-Jan-23 09:33N 44°34' E 037°31'1 1.4
2016-Jan-23 08:33N 44°35' E 037°33'3 3.0
2016-Jan-23 07:33N 44°33' E 037°35'3 3.5
2016-Jan-23 06:33N 44°29' E 037°36'1 1.2
2016-Jan-23 05:33N 44°30' E 037°36'1 1.1
2016-Jan-23 04:32N 44°31' E 037°37'1 1.2
2016-Jan-23 03:33N 44°33' E 037°37'4 3.7
2016-Jan-23 02:33N 44°32' E 037°32'7 6.5
2016-Jan-23 01:32N 44°29' E 037°24'2 1.9
2016-Jan-23 00:24N 44°31' E 037°25'1 1.5
2016-Jan-22 23:33N 44°32' E 037°26'2 1.6
2016-Jan-22 22:33N 44°33' E 037°28'4 3.7
2016-Jan-22 21:33N 44°32' E 037°33'7 7.0
2016-Jan-22 20:33N 44°27' E 037°40'2 1.7
2016-Jan-22 19:33N 44°29' E 037°38'2 1.5
2016-Jan-22 18:33N 44°30' E 037°38'2 1.5
2016-Jan-22 17:33N 44°32' E 037°38'4 3.8
2016-Jan-22 16:33N 44°29' E 037°34'1 1.0
2016-Jan-22 15:33N 44°30' E 037°34'1 1.0
2016-Jan-22 14:33N 44°31' E 037°34'1 1.0
2016-Jan-22 13:33N 44°32' E 037°34'1 1.0
2016-Jan-22 12:33N 44°33' E 037°35'1 1.1
2016-Jan-22 11:33N 44°34' E 037°35'4 4.0
2016-Jan-22 10:33N 44°31' E 037°31'1 1.3
2016-Jan-22 09:33N 44°30' E 037°31'1 0.8
2016-Jan-22 08:33N 44°31' E 037°32'1 1.2
2016-Jan-22 07:33N 44°31' E 037°33'1 1.1
2016-Jan-22 06:33N 44°31' E 037°35'1 1.1
2016-Jan-22 05:33N 44°32' E 037°36'1 1.2
2016-Jan-22 04:33N 44°32' E 037°38'1 1.0
2016-Jan-22 03:33N 44°32' E 037°39'3 3.4
2016-Jan-22 02:33N 44°29' E 037°38'1 0.8
2016-Jan-22 01:33N 44°30' E 037°38'1 1.0
2016-Jan-22 00:33N 44°31' E 037°39'1 0.8
2016-Jan-21 23:33N 44°31' E 037°40'0 0.5
2016-Jan-21 22:33N 44°31' E 037°41'1 0.8
2016-Jan-21 21:33N 44°30' E 037°41'1 0.6
2016-Jan-21 20:33N 44°30' E 037°40'1 0.8
2016-Jan-21 19:33N 44°29' E 037°40'1 1.5
2016-Jan-21 18:33N 44°28' E 037°39'1 1.4
2016-Jan-21 17:33N 44°29' E 037°40'  

Dump ship's entire track history